Terminal Aerodrome Forecast
Issued by NWS Austin/San Antonio, TX

Home | Current Version | Previous Version | Text Only | Print | Product List | Glossary On
Versions: 1 2 3 4 5 6 7 8 9 10 11 12 13 14
000
FTUS44 KEWX 302300
TAFAUS
TAF
KAUS 302320Z 0100/0206 18005KT P6SM SCT045
     FM010900 18004KT 5SM BR BKN015
     FM011200 16004KT 4SM BR OVC010
     FM011600 18008KT P6SM SCT035=

USA.gov is the U.S. government's official web portal to all federal, state and local government web resources and services.